Time;durP1;ratioP1;P1;durP2;ratioP2;P2;SDS_P1;SDS_P2;PMS_P1;PMS_P2;Temp;Humidity;BMP_temperature;BMP_pressure;BME280_temperature;BME280_humidity;BME280_pressure;Samples;Min_cycle;Max_cycle;Signal;HPM_P1;HPM_P2
2023/01/16 00:00:59;;;;;;;5.82;0.80;;;5.90;99.90;;;;;;6149800;28;20054;-80
2023/01/16 00:04:01;;;;;;;1.40;0.70;;;6.00;99.90;;;;;;6149754;28;20040;-81
2023/01/16 00:07:04;;;;;;;2.10;0.80;;;6.00;99.90;;;;;;6149573;28;20058;-80
2023/01/16 00:10:07;;;;;;;3.20;1.05;;;6.10;99.90;;;;;;6149311;28;20058;-80
2023/01/16 00:13:11;;;;;;;4.47;0.90;;;6.10;99.90;;;;;;6149746;28;20035;-79
2023/01/16 00:16:13;;;;;;;4.53;0.60;;;6.10;99.90;;;;;;6150638;28;20050;-81
2023/01/16 00:19:15;;;;;;;2.50;0.95;;;6.10;99.90;;;;;;6153366;28;20053;-81
2023/01/16 00:22:18;;;;;;;1.38;0.90;;;6.10;99.90;;;;;;6173725;28;20058;-81
2023/01/16 00:25:20;;;;;;;3.20;1.08;;;6.00;99.90;;;;;;6173312;28;20047;-80
2023/01/16 00:28:21;;;;;;;6.82;3.25;;;6.00;99.90;;;;;;6174117;28;20054;-80
2023/01/16 00:31:24;;;;;;;4.72;1.27;;;5.90;99.90;;;;;;6175082;28;20420;-80
2023/01/16 00:34:26;;;;;;;2.22;0.82;;;5.90;99.90;;;;;;6175257;28;20066;-80
2023/01/16 00:37:29;;;;;;;6.13;1.60;;;5.80;99.90;;;;;;6174067;28;20559;-80
2023/01/16 00:40:31;;;;;;;2.72;1.35;;;5.80;99.90;;;;;;6174147;28;20585;-80
2023/01/16 00:43:33;;;;;;;3.33;1.10;;;5.70;99.90;;;;;;6174868;28;20049;-81
2023/01/16 00:46:34;;;;;;;1.02;0.70;;;5.70;99.90;;;;;;6174411;28;20058;-79
2023/01/16 00:49:36;;;;;;;1.85;0.60;;;5.60;99.90;;;;;;6175834;28;20047;-80
2023/01/16 00:52:39;;;;;;;2.38;0.77;;;5.60;99.90;;;;;;6179760;28;20054;-80
2023/01/16 00:55:41;;;;;;;5.70;0.93;;;5.60;99.90;;;;;;6182323;28;20046;-80
2023/01/16 00:58:43;;;;;;;3.78;1.05;;;5.60;99.90;;;;;;6196551;28;20495;-80
2023/01/16 01:01:44;;;;;;;2.47;0.80;;;5.60;99.90;;;;;;6202808;28;20050;-79
2023/01/16 01:04:46;;;;;;;3.15;1.45;;;5.60;99.90;;;;;;6203339;28;20057;-81
2023/01/16 01:07:49;;;;;;;8.70;1.15;;;5.60;99.90;;;;;;6203574;28;20526;-80
2023/01/16 01:10:51;;;;;;;3.65;1.00;;;5.60;99.90;;;;;;6203134;28;20050;-81
2023/01/16 01:13:52;;;;;;;5.53;2.28;;;5.60;99.90;;;;;;6203041;28;20354;-79
2023/01/16 01:16:54;;;;;;;3.97;0.80;;;5.60;99.90;;;;;;6202686;28;20073;-80
2023/01/16 01:19:56;;;;;;;2.85;0.85;;;5.60;99.90;;;;;;6202393;28;20065;-79
2023/01/16 01:22:59;;;;;;;4.55;0.98;;;5.50;99.90;;;;;;6200874;28;20054;-80
2023/01/16 01:26:07;;;;;;;2.75;1.40;;;5.50;99.90;;;;;;6212159;23;20542;-82
2023/01/16 01:29:08;;;;;;;;;;;5.60;99.90;;;;;;6182688;28;20054;-82
2023/01/16 01:32:10;;;;;;;2.25;0.90;;;5.60;99.90;;;;;;6188105;28;19969;-82
2023/01/16 01:35:12;;;;;;;4.55;1.23;;;5.60;99.90;;;;;;6187890;28;20109;-82
2023/01/16 01:38:16;;;;;;;6.35;1.77;;;5.60;99.90;;;;;;6184693;28;20095;-81
2023/01/16 01:41:18;;;;;;;1.35;1.17;;;5.70;99.90;;;;;;6170070;28;20055;-83
2023/01/16 01:44:56;;;;;;;3.92;1.50;;;5.70;99.90;;;;;;6169122;28;20066;-82
2023/01/16 01:48:02;;;;;;;1.80;0.80;;;5.70;99.90;;;;;;6161505;29;20463;-82
2023/01/16 01:51:07;;;;;;;2.97;0.60;;;5.80;99.90;;;;;;6178924;28;20078;-82
2023/01/16 01:54:16;;;;;;;3.20;1.13;;;5.70;99.90;;;;;;6179557;28;20051;-83
2023/01/16 01:57:22;;;;;;;1.35;1.13;;;5.70;99.90;;;;;;6168783;28;20055;-83
2023/01/16 02:00:29;;;;;;;4.72;0.77;;;5.60;99.90;;;;;;6148161;29;20052;-82
2023/01/16 02:03:35;;;;;;;4.15;1.30;;;5.60;99.90;;;;;;6146283;29;20096;-83
2023/01/16 02:06:43;;;;;;;3.28;1.17;;;5.60;99.90;;;;;;6143397;28;20059;-82
2023/01/16 02:09:47;;;;;;;3.03;1.88;;;5.60;99.90;;;;;;6138606;29;20059;-83
2023/01/16 02:12:51;;;;;;;2.17;0.93;;;5.60;99.90;;;;;;6137322;28;20048;-82
2023/01/16 02:19:22;;;;;;;7.43;1.00;;;5.70;99.90;;;;;;6136536;29;20047;-82
2023/01/16 02:22:51;;;;;;;3.05;1.13;;;5.80;99.90;;;;;;6137285;29;20617;-82
2023/01/16 02:26:30;;;;;;;2.55;0.88;;;5.90;99.90;;;;;;6136289;29;20059;-82
2023/01/16 02:30:03;;;;;;;10.00;2.05;;;6.00;99.90;;;;;;6136266;28;20047;-82
2023/01/16 02:33:11;;;;;;;3.55;1.10;;;6.00;99.90;;;;;;6136625;29;20059;-82
2023/01/16 02:36:22;;;;;;;8.05;1.23;;;6.10;99.90;;;;;;6136491;29;20068;-82
2023/01/16 02:39:36;;;;;;;12.27;2.65;;;6.20;99.90;;;;;;6134529;28;20057;-82
2023/01/16 02:42:44;;;;;;;4.00;0.90;;;6.20;99.90;;;;;;6137351;29;20180;-82
2023/01/16 02:45:50;;;;;;;;;;;6.30;99.90;;;;;;6141697;28;20052;-83
2023/01/16 02:49:03;;;;;;;1.25;0.70;;;6.40;99.90;;;;;;6148329;28;19962;-82
2023/01/16 02:52:11;;;;;;;5.07;1.52;;;6.40;99.90;;;;;;6143128;29;20062;-82
2023/01/16 02:55:21;;;;;;;2.42;1.08;;;6.40;99.90;;;;;;6141380;29;20139;-82
2023/01/16 02:58:23;;;;;;;1.38;0.77;;;6.50;99.90;;;;;;6169256;28;20057;-82
2023/01/16 03:01:25;;;;;;;1.92;0.80;;;6.50;99.90;;;;;;6190122;28;20107;-82
2023/01/16 03:04:44;;;;;;;4.72;1.00;;;6.50;99.90;;;;;;6188955;28;20042;-82
2023/01/16 03:07:51;;;;;;;;;;;6.50;99.90;;;;;;6189986;28;20160;-83
2023/01/16 03:11:10;;;;;;;3.75;0.85;;;6.50;99.90;;;;;;6190098;28;19965;-84
2023/01/16 03:14:20;;;;;;;4.28;1.00;;;6.50;99.90;;;;;;6189681;28;20046;-83
2023/01/16 03:17:38;;;;;;;5.28;1.15;;;6.50;99.90;;;;;;6189183;28;20248;-83
2023/01/16 03:20:51;;;;;;;1.90;0.67;;;6.50;99.90;;;;;;6174201;28;20051;-82
2023/01/16 03:23:55;;;;;;;4.30;0.70;;;6.50;99.90;;;;;;6165002;28;20047;-82
2023/01/16 03:27:04;;;;;;;6.63;0.98;;;6.50;99.90;;;;;;6166013;28;20053;-83
2023/01/16 03:30:13;;;;;;;4.63;1.23;;;6.50;99.90;;;;;;6166865;28;20118;-82
2023/01/16 03:33:23;;;;;;;11.63;1.00;;;6.60;99.90;;;;;;6168277;28;20416;-82
2023/01/16 03:36:33;;;;;;;3.13;1.05;;;6.60;99.90;;;;;;6168114;28;20053;-83
2023/01/16 03:39:39;;;;;;;3.25;0.70;;;6.60;99.90;;;;;;6170219;28;20143;-82
2023/01/16 03:42:48;;;;;;;1.60;0.80;;;6.50;99.90;;;;;;6141515;29;20058;-83
2023/01/16 03:46:09;;;;;;;0.77;0.52;;;6.50;99.90;;;;;;6142044;28;20047;-82
2023/01/16 03:49:14;;;;;;;1.85;0.82;;;6.50;99.90;;;;;;6152693;28;20532;-83
2023/01/16 03:52:20;;;;;;;2.45;0.80;;;6.40;99.90;;;;;;6166490;29;20413;-82
2023/01/16 03:55:30;;;;;;;3.30;0.57;;;6.40;99.90;;;;;;6165561;28;20131;-83
2023/01/16 03:58:35;;;;;;;8.88;1.17;;;6.50;99.90;;;;;;6165316;28;20051;-82
2023/01/16 04:01:42;;;;;;;4.90;1.15;;;6.50;99.90;;;;;;6186684;28;20085;-82
2023/01/16 04:04:50;;;;;;;3.70;1.02;;;6.50;99.90;;;;;;6191173;28;20058;-83
2023/01/16 04:08:14;;;;;;;2.47;0.63;;;6.60;99.90;;;;;;6189347;28;20524;-82
2023/01/16 04:11:21;;;;;;;4.25;0.80;;;6.60;99.90;;;;;;6187451;28;20054;-80
2023/01/16 04:18:14;;;;;;;2.55;0.90;;;6.60;99.90;;;;;;6186360;28;20062;-80
2023/01/16 04:21:17;;;;;;;5.10;0.82;;;6.60;99.90;;;;;;6167650;28;20071;-80
2023/01/16 04:24:21;;;;;;;3.22;0.80;;;6.60;99.90;;;;;;6165806;28;20047;-81
2023/01/16 04:27:25;;;;;;;4.43;0.98;;;6.60;99.90;;;;;;6170110;28;20055;-81
2023/01/16 04:30:32;;;;;;;2.60;2.00;;;6.60;99.90;;;;;;6169771;28;20057;-81
2023/01/16 04:34:02;;;;;;;5.63;0.80;;;6.70;99.90;;;;;;6177922;28;20132;-80
2023/01/16 04:37:04;;;;;;;6.22;1.80;;;6.70;99.90;;;;;;6173750;28;20051;-82
2023/01/16 04:40:23;;;;;;;3.50;1.40;;;6.70;99.90;;;;;;6169568;28;20047;-81
2023/01/16 04:43:26;;;;;;;1.63;0.75;;;6.60;99.90;;;;;;6167555;29;20055;-81
2023/01/16 04:46:29;;;;;;;2.67;0.98;;;6.70;99.90;;;;;;6168666;28;20079;-82
2023/01/16 04:49:30;;;;;;;1.92;1.10;;;6.70;99.90;;;;;;6170132;28;20052;-82
2023/01/16 04:52:32;;;;;;;6.53;1.08;;;6.70;99.90;;;;;;6170271;28;20062;-82
2023/01/16 04:55:35;;;;;;;1.27;1.00;;;6.70;99.90;;;;;;6170157;28;20043;-82
2023/01/16 04:58:37;;;;;;;1.90;0.80;;;6.70;99.90;;;;;;6170524;28;20074;-82
2023/01/16 05:01:39;;;;;;;1.88;1.02;;;6.70;99.90;;;;;;6162621;28;20118;-81
2023/01/16 05:04:41;;;;;;;4.88;1.85;;;6.70;99.90;;;;;;6146348;29;20044;-81
2023/01/16 05:07:43;;;;;;;4.25;0.80;;;6.70;99.90;;;;;;6149527;29;20061;-83
2023/01/16 05:10:46;;;;;;;2.40;0.68;;;6.70;99.90;;;;;;6148338;29;20060;-82
2023/01/16 05:13:48;;;;;;;8.13;1.30;;;6.60;99.90;;;;;;6150278;29;20055;-82
2023/01/16 05:16:49;;;;;;;5.20;0.90;;;6.60;99.90;;;;;;6156914;29;20050;-82
2023/01/16 05:19:51;;;;;;;1.60;0.75;;;6.60;99.90;;;;;;6160408;29;20043;-83
2023/01/16 05:22:53;;;;;;;3.83;1.15;;;6.50;99.90;;;;;;6172866;28;20051;-82
2023/01/16 05:25:57;;;;;;;2.50;1.52;;;6.40;99.90;;;;;;6170333;28;20055;-82
2023/01/16 05:28:59;;;;;;;3.22;1.38;;;6.30;99.90;;;;;;6168374;28;20405;-81
2023/01/16 05:32:00;;;;;;;1.55;0.50;;;6.20;99.90;;;;;;6170249;29;20061;-81
2023/01/16 05:35:03;;;;;;;3.90;0.93;;;6.10;99.90;;;;;;6185868;28;20054;-80
2023/01/16 05:38:05;;;;;;;1.52;0.65;;;6.00;99.90;;;;;;6189802;28;20596;-81
2023/01/16 05:41:08;;;;;;;4.93;1.23;;;5.90;99.90;;;;;;6191200;28;20467;-81
2023/01/16 05:44:10;;;;;;;1.50;0.80;;;5.80;99.90;;;;;;6192249;28;20064;-81
2023/01/16 05:47:11;;;;;;;2.20;1.33;;;5.60;99.90;;;;;;6191489;28;20051;-81
2023/01/16 05:50:13;;;;;;;6.82;1.58;;;5.50;99.90;;;;;;6191195;28;20054;-81
2023/01/16 05:53:15;;;;;;;4.07;0.90;;;5.40;99.90;;;;;;6190848;28;20053;-80
2023/01/16 05:56:20;;;;;;;4.78;1.35;;;5.30;99.90;;;;;;6189678;28;20038;-80
2023/01/16 05:59:22;;;;;;;2.75;0.93;;;5.10;99.90;;;;;;6166120;28;20429;-81
2023/01/16 06:02:24;;;;;;;4.30;1.08;;;5.10;99.90;;;;;;6162203;28;20421;-80
2023/01/16 06:05:25;;;;;;;5.15;1.80;;;5.00;99.90;;;;;;6165189;28;20039;-81
2023/01/16 06:08:27;;;;;;;4.15;0.90;;;5.00;99.90;;;;;;6156415;28;20047;-80
2023/01/16 06:11:33;;;;;;;3.13;0.45;;;4.90;99.90;;;;;;6164259;29;20125;-80
2023/01/16 06:14:35;;;;;;;0.82;0.82;;;4.80;99.90;;;;;;6163214;28;20054;-80
2023/01/16 06:17:37;;;;;;;3.80;1.10;;;4.70;99.90;;;;;;6153670;28;20055;-80
2023/01/16 06:20:38;;;;;;;1.67;0.70;;;4.70;99.90;;;;;;6154248;28;20055;-80
2023/01/16 06:23:40;;;;;;;2.08;1.00;;;4.60;99.90;;;;;;6156364;28;20061;-81
2023/01/16 06:26:43;;;;;;;4.35;1.27;;;4.60;99.90;;;;;;6158782;28;20532;-80
2023/01/16 06:29:45;;;;;;;4.25;1.83;;;4.60;99.90;;;;;;6153825;28;20047;-80
2023/01/16 06:32:50;;;;;;;5.82;1.10;;;4.60;99.90;;;;;;6153371;28;20136;-81
2023/01/16 06:35:52;;;;;;;1.05;0.90;;;4.60;99.90;;;;;;6155774;28;20052;-82
2023/01/16 06:38:54;;;;;;;1.60;0.77;;;4.50;99.90;;;;;;6153811;28;20518;-81
2023/01/16 06:41:57;;;;;;;3.03;0.93;;;4.50;99.90;;;;;;6156406;28;20054;-81
2023/01/16 06:44:59;;;;;;;2.25;1.10;;;4.40;99.90;;;;;;6156608;28;20472;-81
2023/01/16 06:48:01;;;;;;;6.25;2.38;;;4.40;99.90;;;;;;6157652;28;20063;-81
2023/01/16 06:51:02;;;;;;;2.03;1.45;;;4.40;99.90;;;;;;6158733;28;20055;-81
2023/01/16 06:54:04;;;;;;;2.10;1.33;;;4.40;99.90;;;;;;6158233;28;20705;-82
2023/01/16 06:57:07;;;;;;;1.85;0.93;;;4.40;99.90;;;;;;6157038;28;20047;-82
2023/01/16 07:00:10;;;;;;;1.67;1.00;;;4.40;99.90;;;;;;6154957;28;20051;-82
2023/01/16 07:03:12;;;;;;;2.10;1.20;;;4.30;99.90;;;;;;6154457;28;20055;-82
2023/01/16 07:06:14;;;;;;;8.10;3.80;;;4.30;99.90;;;;;;6156703;28;20486;-82
2023/01/16 07:09:16;;;;;;;3.42;1.27;;;4.30;99.90;;;;;;6156804;28;20106;-83
2023/01/16 07:12:19;;;;;;;2.63;1.23;;;4.30;99.90;;;;;;6156974;29;20051;-82
2023/01/16 07:25:34;;;;;;;4.00;1.52;;;4.40;99.90;;;;;;6200542;23;20490;-79
2023/01/16 07:28:37;;;;;;;2.95;1.63;;;4.40;99.90;;;;;;6216657;28;20053;-79
2023/01/16 07:31:40;;;;;;;6.18;1.30;;;4.40;99.90;;;;;;6204519;28;20054;-80
2023/01/16 07:34:43;;;;;;;6.50;1.23;;;4.40;99.90;;;;;;6199212;28;20538;-80
2023/01/16 07:37:45;;;;;;;3.72;1.35;;;4.40;99.90;;;;;;6198916;28;20687;-79
2023/01/16 07:40:47;;;;;;;2.47;0.90;;;4.50;99.90;;;;;;6199202;28;20050;-80
2023/01/16 07:43:51;;;;;;;7.57;2.50;;;4.60;99.90;;;;;;6199321;28;20046;-81
2023/01/16 07:46:52;;;;;;;2.88;1.30;;;4.70;99.90;;;;;;6198521;28;20042;-81
2023/01/16 07:49:56;;;;;;;4.00;1.50;;;4.70;99.90;;;;;;6197833;28;20623;-79
2023/01/16 07:52:58;;;;;;;9.45;2.20;;;4.60;99.90;;;;;;6198938;28;20078;-81
2023/01/16 07:56:02;;;;;;;5.90;1.65;;;4.70;99.90;;;;;;6198578;28;20042;-78
2023/01/16 07:59:05;;;;;;;1.45;0.90;;;4.70;99.90;;;;;;6196988;28;20054;-81
2023/01/16 08:02:06;;;;;;;10.80;6.47;;;4.80;99.90;;;;;;6204423;28;20054;-80
2023/01/16 08:05:10;;;;;;;4.90;1.50;;;4.80;99.90;;;;;;6221552;28;20042;-81
2023/01/16 08:08:12;;;;;;;2.33;1.10;;;4.90;99.90;;;;;;6222031;28;20475;-80
2023/01/16 08:14:34;;;;;;;1.85;1.02;;;5.10;99.90;;;;;;6222592;28;20692;-81
2023/01/16 08:17:39;;;;;;;5.07;0.95;;;5.20;99.90;;;;;;6222245;28;20064;-80
2023/01/16 08:20:42;;;;;;;7.35;1.20;;;5.20;99.90;;;;;;6222377;28;20054;-81
2023/01/16 08:23:44;;;;;;;1.95;1.10;;;5.20;99.90;;;;;;6223398;28;20060;-81
2023/01/16 08:26:46;;;;;;;3.40;1.13;;;5.30;99.90;;;;;;6222226;28;20057;-81
2023/01/16 08:29:49;;;;;;;2.28;1.67;;;5.30;99.90;;;;;;6222052;28;20042;-81
2023/01/16 08:32:57;;;;;;;3.17;0.90;;;5.30;99.90;;;;;;6196379;28;20053;-80
2023/01/16 08:35:59;;;;;;;4.78;1.38;;;5.40;99.90;;;;;;6213097;28;20050;-80
2023/01/16 08:39:01;;;;;;;21.88;19.75;;;5.40;99.90;;;;;;6208550;28;20069;-81
2023/01/16 08:52:02;;;;;;;0.32;0.32;;;6.40;99.90;;;;;;6198829;28;20046;-79
2023/01/16 08:55:05;;;;;;;0.90;0.40;;;6.80;99.90;;;;;;6197526;28;20073;-79
2023/01/16 08:58:07;;;;;;;0.63;0.40;;;7.10;99.90;;;;;;6196772;28;20117;-80
2023/01/16 09:01:10;;;;;;;0.40;0.32;;;7.30;99.90;;;;;;6197655;28;20046;-80
2023/01/16 09:04:12;;;;;;;1.23;0.30;;;7.60;99.90;;;;;;6210904;28;20049;-78
2023/01/16 09:07:13;;;;;;;0.85;0.85;;;7.80;99.90;;;;;;6211150;28;20043;-78
2023/01/16 09:10:16;;;;;;;1.10;0.60;;;7.90;99.90;;;;;;6197203;28;20047;-80
2023/01/16 09:16:38;;;;;;;0.32;0.30;;;8.20;99.90;;;;;;6202240;28;20046;-78
2023/01/16 09:19:39;;;;;;;0.25;0.25;;;8.30;99.90;;;;;;6208299;28;20437;-79
2023/01/16 09:22:41;;;;;;;0.55;0.43;;;8.40;99.90;;;;;;6226255;28;20508;-79
2023/01/16 09:25:43;;;;;;;1.08;0.40;;;8.40;99.90;;;;;;6226380;28;20509;-80
2023/01/16 09:28:45;;;;;;;4.70;2.08;;;8.40;99.90;;;;;;6225781;28;20359;-81
2023/01/16 09:31:48;;;;;;;0.30;0.30;;;8.40;99.90;;;;;;6217034;28;20057;-81
2023/01/16 09:34:50;;;;;;;0.55;0.55;;;8.30;99.90;;;;;;6201409;28;20053;-80
2023/01/16 09:37:51;;;;;;;0.40;0.40;;;8.30;99.90;;;;;;6209936;28;20114;-79
2023/01/16 09:40:56;;;;;;;2.60;1.35;;;8.30;99.90;;;;;;6202299;28;20042;-81
2023/01/16 09:43:57;;;;;;;0.43;0.43;;;8.20;99.90;;;;;;6202211;28;20057;-81
2023/01/16 09:47:01;;;;;;;1.40;0.70;;;8.20;99.90;;;;;;6202754;28;20043;-81
2023/01/16 09:50:06;;;;;;;2.65;0.63;;;8.20;99.90;;;;;;6201470;28;20392;-81
2023/01/16 10:00:02;;;;;;;2.38;0.55;;;8.10;99.90;;;;;;6202106;28;20050;-81
2023/01/16 10:03:05;;;;;;;2.47;0.50;;;8.20;99.90;;;;;;6202331;28;20050;-81
2023/01/16 10:06:15;;;;;;;0.43;0.43;;;8.10;99.90;;;;;;6218424;28;20053;-80
2023/01/16 10:09:23;;;;;;;1.35;0.63;;;8.20;99.90;;;;;;6226537;28;20041;-80
2023/01/16 10:12:32;;;;;;;0.65;0.65;;;8.20;99.90;;;;;;6227015;28;20050;-80
2023/01/16 10:15:39;;;;;;;0.63;0.43;;;8.20;99.90;;;;;;6226630;28;20056;-81
2023/01/16 10:18:53;;;;;;;1.58;1.02;;;8.20;99.90;;;;;;6225894;28;20053;-80
2023/01/16 10:22:24;;;;;;;2.42;0.70;;;8.20;99.90;;;;;;6201359;28;20046;-80
2023/01/16 10:25:30;;;;;;;0.40;0.40;;;8.20;99.90;;;;;;6196417;28;20053;-80
2023/01/16 10:28:47;;;;;;;2.28;0.52;;;8.30;99.90;;;;;;6201585;28;20047;-81
2023/01/16 10:31:54;;;;;;;1.30;0.50;;;8.30;99.90;;;;;;6207977;28;20042;-80
2023/01/16 10:35:03;;;;;;;1.05;0.50;;;8.30;99.90;;;;;;6217402;28;20049;-81
2023/01/16 10:38:19;;;;;;;0.45;0.40;;;8.30;99.90;;;;;;6218379;28;20052;-81
2023/01/16 10:51:52;;;;;;;1.30;0.50;;;8.40;99.90;;;;;;6201600;28;20404;-81
2023/01/16 10:54:56;;;;;;;0.50;0.50;;;8.40;99.90;;;;;;6200494;28;20054;-80
2023/01/16 10:58:02;;;;;;;0.50;0.30;;;8.40;99.90;;;;;;6200115;28;20050;-79
2023/01/16 11:01:07;;;;;;;0.65;0.60;;;8.40;99.90;;;;;;6200891;28;20056;-80
2023/01/16 11:04:11;;;;;;;0.57;0.50;;;8.40;99.90;;;;;;6209501;28;20141;-81
2023/01/16 11:07:17;;;;;;;0.75;0.60;;;8.50;99.90;;;;;;6217375;28;20046;-81
2023/01/16 11:10:19;;;;;;;0.55;0.50;;;8.40;99.90;;;;;;6225133;28;20350;-80
2023/01/16 11:20:05;;;;;;;0.77;0.40;;;8.60;99.90;;;;;;6229718;28;20673;-81
2023/01/16 11:23:18;;;;;;;0.30;0.20;;;8.60;99.90;;;;;;6225464;28;20049;-82
2023/01/16 11:26:20;;;;;;;0.20;0.20;;;8.60;99.90;;;;;;6203732;28;20542;-81
2023/01/16 11:29:25;;;;;;;1.27;0.50;;;8.70;99.90;;;;;;6200703;28;20046;-81
2023/01/16 11:32:29;;;;;;;0.38;0.32;;;8.80;99.90;;;;;;6200638;28;20160;-81
2023/01/16 11:35:34;;;;;;;0.52;0.40;;;8.80;99.90;;;;;;6214884;28;20054;-81
2023/01/16 11:38:43;;;;;;;0.30;0.30;;;8.90;99.90;;;;;;6221789;28;20069;-81
2023/01/16 11:41:48;;;;;;;0.32;0.30;;;8.90;99.90;;;;;;6224841;28;20048;-81
2023/01/16 11:48:25;;;;;;;0.50;0.50;;;9.00;99.90;;;;;;6223949;28;20050;-80
2023/01/16 11:51:30;;;;;;;0.28;0.20;;;9.10;99.90;;;;;;6224473;28;20778;-79
2023/01/16 11:54:35;;;;;;;0.22;0.20;;;9.20;99.90;;;;;;6223545;28;20057;-81
2023/01/16 11:57:48;;;;;;;0.47;0.40;;;9.30;99.90;;;;;;6223742;28;20050;-81
2023/01/16 12:00:56;;;;;;;0.30;0.30;;;9.30;99.90;;;;;;6223625;28;20161;-81
2023/01/16 12:04:10;;;;;;;0.25;0.20;;;9.20;99.90;;;;;;6224040;28;20050;-81
2023/01/16 12:07:18;;;;;;;0.30;0.30;;;9.30;99.90;;;;;;6215457;28;20049;-80
2023/01/16 12:10:25;;;;;;;;;;;9.40;99.90;;;;;;6224095;28;20068;-81
2023/01/16 12:17:09;;;;;;;1.50;0.50;;;9.70;99.90;;;;;;6223988;28;20042;-80
2023/01/16 12:20:19;;;;;;;0.30;0.28;;;9.90;99.90;;;;;;6224351;28;20071;-81
2023/01/16 12:23:48;;;;;;;3.20;0.38;;;10.10;99.90;;;;;;6224029;28;20112;-81
2023/01/16 12:26:58;;;;;;;;;;;10.30;99.90;;;;;;6223782;28;20053;-81
2023/01/16 12:30:07;;;;;;;0.30;0.30;;;10.50;99.90;;;;;;6223790;28;19928;-81
2023/01/16 12:33:21;;;;;;;0.65;0.55;;;10.80;99.90;;;;;;6223698;28;20534;-80
2023/01/16 12:36:35;;;;;;;0.20;0.20;;;10.80;99.40;;;;;;6211747;28;20070;-81
2023/01/16 12:39:47;;;;;;;0.20;0.20;;;11.00;99.30;;;;;;6198699;28;20058;-79
2023/01/16 12:46:25;;;;;;;0.15;0.13;;;11.00;98.30;;;;;;6200512;28;20042;-81
2023/01/16 12:49:42;;;;;;;0.40;0.30;;;10.90;97.70;;;;;;6204466;28;20065;-79
2023/01/16 12:52:56;;;;;;;0.35;0.30;;;10.90;97.80;;;;;;6203865;28;20389;-81
2023/01/16 12:56:14;;;;;;;1.15;0.40;;;11.00;97.80;;;;;;6203499;28;20140;-80
2023/01/16 12:59:23;;;;;;;0.40;0.40;;;11.20;97.80;;;;;;6203481;28;20050;-81
2023/01/16 13:02:34;;;;;;;0.43;0.43;;;11.40;96.70;;;;;;6203410;28;20050;-81
2023/01/16 13:05:38;;;;;;;0.22;0.22;;;11.20;96.30;;;;;;6215278;28;20137;-81
2023/01/16 13:08:43;;;;;;;0.30;0.30;;;11.00;96.10;;;;;;6205563;28;20065;-81
2023/01/16 13:15:25;;;;;;;0.52;0.52;;;11.40;95.90;;;;;;6204245;28;20047;-80
2023/01/16 13:18:30;;;;;;;0.43;0.20;;;11.40;95.70;;;;;;6203687;28;20397;-82
2023/01/16 13:21:39;;;;;;;1.02;0.80;;;11.40;95.30;;;;;;6203591;28;20108;-81
2023/01/16 13:24:47;;;;;;;1.13;0.82;;;11.20;94.40;;;;;;6217326;23;20056;-78
2023/01/16 13:27:55;;;;;;;2.75;0.43;;;11.00;94.90;;;;;;6202233;28;20058;-77
2023/01/16 13:31:02;;;;;;;0.30;0.30;;;10.70;94.90;;;;;;6191535;28;20062;-77
2023/01/16 13:34:11;;;;;;;3.13;2.05;;;10.50;94.80;;;;;;6201725;28;20050;-77
2023/01/16 13:37:32;;;;;;;0.75;0.40;;;10.40;95.30;;;;;;6198894;28;20042;-77
2023/01/16 13:40:43;;;;;;;0.63;0.47;;;10.30;95.70;;;;;;6199549;28;20436;-79
2023/01/16 13:47:16;;;;;;;0.32;0.30;;;10.20;95.70;;;;;;6199833;28;20046;-78
2023/01/16 13:50:24;;;;;;;0.35;0.30;;;10.10;95.40;;;;;;6200318;28;20401;-78
2023/01/16 13:53:26;;;;;;;0.75;0.47;;;10.00;95.30;;;;;;6200016;28;20046;-79
2023/01/16 13:56:30;;;;;;;0.50;0.50;;;10.00;95.70;;;;;;6199760;28;20137;-79
2023/01/16 13:59:42;;;;;;;1.00;0.73;;;10.00;95.70;;;;;;6187735;28;20051;-80
2023/01/16 14:02:56;;;;;;;2.25;2.05;;;10.00;96.00;;;;;;6176034;28;20055;-79
2023/01/16 14:06:18;;;;;;;1.05;0.20;;;9.90;95.70;;;;;;6199582;28;20051;-79
2023/01/16 14:09:21;;;;;;;1.08;0.73;;;9.70;95.60;;;;;;6200995;28;20038;-78
2023/01/16 14:12:25;;;;;;;0.30;0.30;;;9.60;95.60;;;;;;6200707;28;20050;-79
2023/01/16 14:19:22;;;;;;;1.17;0.80;;;9.50;95.70;;;;;;6198953;28;20050;-78
2023/01/16 14:25:45;;;;;;;0.50;0.50;;;9.50;95.80;;;;;;6200688;28;20125;-80
2023/01/16 14:28:48;;;;;;;0.55;0.40;;;9.40;95.90;;;;;;6202079;28;20522;-81
2023/01/16 14:31:56;;;;;;;0.17;0.17;;;9.40;95.80;;;;;;6202059;28;20050;-79
2023/01/16 14:35:02;;;;;;;1.05;0.35;;;9.40;96.00;;;;;;6191495;28;20487;-78
2023/01/16 14:38:09;;;;;;;0.73;0.20;;;9.30;96.20;;;;;;6200060;28;20051;-78
2023/01/16 14:55:21;;;;;;;0.35;0.35;;;8.30;99.90;;;;;;6197816;28;20047;-78
2023/01/16 14:58:33;;;;;;;0.75;0.35;;;7.80;99.90;;;;;;6198214;28;20127;-79
2023/01/16 15:05:07;;;;;;;0.30;0.30;;;7.00;99.90;;;;;;6198780;28;20022;-78
2023/01/16 15:08:14;;;;;;;1.08;0.57;;;6.80;99.90;;;;;;6198072;28;20046;-79
2023/01/16 15:11:34;;;;;;;1.38;0.20;;;6.70;99.90;;;;;;6198392;28;20061;-79
2023/01/16 15:14:37;;;;;;;0.60;0.40;;;6.70;99.90;;;;;;6198880;28;20120;-78
2023/01/16 15:24:27;;;;;;;0.65;0.35;;;6.80;99.90;;;;;;6199068;28;20050;-78
2023/01/16 15:27:33;;;;;;;4.72;0.45;;;6.90;99.90;;;;;;6198883;28;20088;-79
2023/01/16 15:30:36;;;;;;;0.20;0.20;;;6.90;99.90;;;;;;6198432;28;20427;-78
2023/01/16 15:33:44;;;;;;;0.40;0.32;;;6.90;99.90;;;;;;6193644;28;20049;-79
2023/01/16 15:36:49;;;;;;;0.50;0.43;;;7.00;99.90;;;;;;6196773;28;20129;-78
2023/01/16 15:39:52;;;;;;;0.32;0.32;;;6.90;99.90;;;;;;6197722;28;20523;-77
2023/01/16 15:46:35;;;;;;;0.80;0.38;;;6.70;99.90;;;;;;6197487;28;20050;-78
2023/01/16 15:49:47;;;;;;;0.65;0.38;;;6.70;99.90;;;;;;6197862;28;20050;-78
2023/01/16 15:52:49;;;;;;;2.00;0.55;;;6.70;99.90;;;;;;6197389;28;20125;-78
2023/01/16 15:55:55;;;;;;;2.33;0.32;;;6.70;99.90;;;;;;6198210;28;20060;-79
2023/01/16 15:58:57;;;;;;;0.20;0.20;;;6.70;99.90;;;;;;6196466;28;20049;-82
2023/01/16 16:02:16;;;;;;;0.52;0.52;;;6.50;99.90;;;;;;6197832;28;20053;-80
2023/01/16 16:05:22;;;;;;;0.22;0.22;;;6.40;99.90;;;;;;6198413;28;20584;-78
2023/01/16 16:08:26;;;;;;;1.10;0.47;;;6.30;99.90;;;;;;6198001;28;20488;-78
2023/01/16 16:18:35;;;;;;;0.40;0.40;;;6.10;99.90;;;;;;6197140;28;20042;-78
2023/01/16 16:22:47;;;;;;;0.80;0.30;;;6.10;99.90;;;;;;6197220;28;20050;-78
2023/01/16 16:25:17;;;;;;;0.68;0.68;;;6.10;99.90;;;;;;6197183;28;20098;-78
2023/01/16 16:28:23;;;;;;;0.43;0.40;;;6.10;99.90;;;;;;6197833;28;20043;-78
2023/01/16 16:31:29;;;;;;;0.40;0.40;;;6.10;99.90;;;;;;6197718;28;20054;-79
2023/01/16 16:34:32;;;;;;;0.40;0.40;;;6.10;99.90;;;;;;6192443;28;20504;-78
2023/01/16 16:37:34;;;;;;;0.60;0.60;;;6.00;99.90;;;;;;6197594;28;20133;-79
2023/01/16 16:40:36;;;;;;;1.45;0.57;;;6.00;99.90;;;;;;6198313;28;20061;-78
2023/01/16 16:43:49;;;;;;;0.52;0.52;;;6.00;99.90;;;;;;6198250;28;20046;-79
2023/01/16 16:46:51;;;;;;;1.17;0.50;;;5.90;99.90;;;;;;6198082;28;20042;-79
2023/01/16 16:49:54;;;;;;;2.03;0.60;;;5.90;99.90;;;;;;6197391;28;20050;-79
2023/01/16 16:53:04;;;;;;;0.22;0.22;;;5.90;99.90;;;;;;6197008;28;20050;-78
2023/01/16 16:56:11;;;;;;;0.80;0.50;;;5.80;99.90;;;;;;6196373;28;20050;-78
2023/01/16 16:59:18;;;;;;;1.52;0.88;;;5.70;99.90;;;;;;6196898;28;20050;-80
2023/01/16 17:02:20;;;;;;;0.68;0.40;;;5.60;99.90;;;;;;6196814;28;20050;-78
2023/01/16 17:05:22;;;;;;;2.40;0.52;;;5.50;99.90;;;;;;6197380;28;20108;-79
2023/01/16 17:08:27;;;;;;;2.03;0.75;;;5.40;99.90;;;;;;6195633;28;20046;-79
2023/01/16 17:11:29;;;;;;;1.88;0.80;;;5.40;99.90;;;;;;6196913;28;20062;-78
2023/01/16 17:14:32;;;;;;;0.60;0.60;;;5.40;99.90;;;;;;6196651;28;20491;-77
2023/01/16 17:17:34;;;;;;;0.77;0.63;;;5.40;99.90;;;;;;6196537;28;20058;-79
2023/01/16 17:20:37;;;;;;;1.83;0.80;;;5.30;99.90;;;;;;6196045;28;20128;-80
2023/01/16 17:23:38;;;;;;;0.70;0.60;;;5.20;99.90;;;;;;6196103;28;20424;-78
2023/01/16 17:26:40;;;;;;;1.65;0.50;;;5.20;99.90;;;;;;6196501;28;20100;-79
2023/01/16 17:29:43;;;;;;;3.15;1.10;;;5.20;99.90;;;;;;6195930;28;20050;-79
2023/01/16 17:32:47;;;;;;;0.88;0.50;;;5.10;99.90;;;;;;6197954;28;20050;-78
2023/01/16 17:35:58;;;;;;;1.88;0.60;;;5.20;99.90;;;;;;6192846;28;20046;-81
2023/01/16 17:39:00;;;;;;;0.40;0.40;;;5.10;99.90;;;;;;6179008;28;20135;-78
2023/01/16 17:48:50;;;;;;;0.52;0.35;;;5.10;99.90;;;;;;6200933;28;20047;-78
2023/01/16 17:51:51;;;;;;;1.88;0.65;;;5.10;99.90;;;;;;6200797;28;20057;-79
2023/01/16 17:58:13;;;;;;;0.47;0.47;;;5.10;99.90;;;;;;6200692;28;20054;-80
2023/01/16 18:01:18;;;;;;;1.77;0.57;;;5.10;99.90;;;;;;6201458;28;20149;-79
2023/01/16 18:04:20;;;;;;;1.15;0.82;;;5.10;99.90;;;;;;6203146;28;20053;-81
2023/01/16 18:07:21;;;;;;;4.97;2.85;;;5.10;99.90;;;;;;6200471;28;20042;-81
2023/01/16 18:10:23;;;;;;;4.57;0.95;;;5.10;99.90;;;;;;6201499;28;20138;-79
2023/01/16 18:20:11;;;;;;;;;;;5.00;99.90;;;;;;6178580;28;20046;-78
2023/01/16 18:23:15;;;;;;;0.68;0.68;;;5.00;99.90;;;;;;6199478;28;19922;-79
2023/01/16 18:26:16;;;;;;;2.75;2.22;;;5.00;99.90;;;;;;6200203;28;20051;-81
2023/01/16 18:29:18;;;;;;;120.20;65.15;;;5.00;99.90;;;;;;6198970;28;20050;-77
2023/01/16 18:32:22;;;;;;;4.22;3.17;;;5.00;99.90;;;;;;6199433;28;20061;-78
2023/01/16 18:35:26;;;;;;;14.10;12.90;;;5.00;99.90;;;;;;6200261;28;20101;-79